sensor_id;sensor_type;location;lat;lon;timestamp;P1;durP1;ratioP1;P2;durP2;ratioP2
63511;SDS011;49666;52.030;8.884;2024-01-16T00:01:50;2.80;;;0.80;;
63511;SDS011;49666;52.030;8.884;2024-01-16T00:04:16;11.75;;;1.33;;
63511;SDS011;49666;52.030;8.884;2024-01-16T00:06:41;2.97;;;0.90;;
63511;SDS011;49666;52.030;8.884;2024-01-16T00:09:07;8.30;;;1.80;;
63511;SDS011;49666;52.030;8.884;2024-01-16T00:11:33;7.13;;;1.00;;
63511;SDS011;49666;52.030;8.884;2024-01-16T00:13:59;1.35;;;0.70;;
63511;SDS011;49666;52.030;8.884;2024-01-16T00:16:24;3.38;;;0.70;;
63511;SDS011;49666;52.030;8.884;2024-01-16T00:18:49;2.15;;;0.70;;
63511;SDS011;49666;52.030;8.884;2024-01-16T00:21:15;3.25;;;1.17;;
63511;SDS011;49666;52.030;8.884;2024-01-16T00:23:40;2.33;;;0.70;;
63511;SDS011;49666;52.030;8.884;2024-01-16T00:26:05;4.70;;;1.13;;
63511;SDS011;49666;52.030;8.884;2024-01-16T00:28:31;3.08;;;0.82;;
63511;SDS011;49666;52.030;8.884;2024-01-16T00:30:57;6.20;;;1.08;;
63511;SDS011;49666;52.030;8.884;2024-01-16T00:33:22;3.53;;;0.80;;
63511;SDS011;49666;52.030;8.884;2024-01-16T00:35:48;3.88;;;0.93;;
63511;SDS011;49666;52.030;8.884;2024-01-16T00:38:13;2.25;;;1.05;;
63511;SDS011;49666;52.030;8.884;2024-01-16T00:40:39;3.63;;;0.93;;
63511;SDS011;49666;52.030;8.884;2024-01-16T00:43:04;3.13;;;1.00;;
63511;SDS011;49666;52.030;8.884;2024-01-16T00:45:29;7.72;;;1.33;;
63511;SDS011;49666;52.030;8.884;2024-01-16T00:47:55;4.60;;;0.95;;
63511;SDS011;49666;52.030;8.884;2024-01-16T00:50:20;6.85;;;1.30;;
63511;SDS011;49666;52.030;8.884;2024-01-16T00:52:46;5.55;;;1.65;;
63511;SDS011;49666;52.030;8.884;2024-01-16T00:55:11;6.30;;;1.48;;
63511;SDS011;49666;52.030;8.884;2024-01-16T00:57:36;1.48;;;1.00;;
63511;SDS011;49666;52.030;8.884;2024-01-16T01:00:01;5.35;;;1.10;;
63511;SDS011;49666;52.030;8.884;2024-01-16T01:02:28;3.00;;;1.00;;
63511;SDS011;49666;52.030;8.884;2024-01-16T01:04:54;4.65;;;0.93;;
63511;SDS011;49666;52.030;8.884;2024-01-16T01:07:19;1.88;;;0.93;;
63511;SDS011;49666;52.030;8.884;2024-01-16T01:09:45;1.80;;;0.73;;
63511;SDS011;49666;52.030;8.884;2024-01-16T01:12:10;2.58;;;0.93;;
63511;SDS011;49666;52.030;8.884;2024-01-16T01:14:35;5.30;;;0.73;;
63511;SDS011;49666;52.030;8.884;2024-01-16T01:17:01;3.17;;;1.10;;
63511;SDS011;49666;52.030;8.884;2024-01-16T01:19:26;2.03;;;0.73;;
63511;SDS011;49666;52.030;8.884;2024-01-16T01:21:51;3.55;;;0.57;;
63511;SDS011;49666;52.030;8.884;2024-01-16T01:24:16;2.75;;;0.90;;
63511;SDS011;49666;52.030;8.884;2024-01-16T01:26:45;3.88;;;0.85;;
63511;SDS011;49666;52.030;8.884;2024-01-16T01:29:10;4.25;;;0.98;;
63511;SDS011;49666;52.030;8.884;2024-01-16T01:31:35;3.80;;;0.90;;
63511;SDS011;49666;52.030;8.884;2024-01-16T01:34:01;2.85;;;0.80;;
63511;SDS011;49666;52.030;8.884;2024-01-16T01:36:26;3.03;;;0.82;;
63511;SDS011;49666;52.030;8.884;2024-01-16T01:38:52;6.97;;;1.52;;
63511;SDS011;49666;52.030;8.884;2024-01-16T01:41:17;2.65;;;0.80;;
63511;SDS011;49666;52.030;8.884;2024-01-16T01:43:43;1.73;;;0.70;;
63511;SDS011;49666;52.030;8.884;2024-01-16T01:48:42;3.75;;;1.00;;
63511;SDS011;49666;52.030;8.884;2024-01-16T01:51:08;2.92;;;0.60;;
63511;SDS011;49666;52.030;8.884;2024-01-16T01:53:35;4.60;;;1.10;;
63511;SDS011;49666;52.030;8.884;2024-01-16T01:56:03;5.80;;;1.13;;
63511;SDS011;49666;52.030;8.884;2024-01-16T01:58:33;3.00;;;0.90;;
63511;SDS011;49666;52.030;8.884;2024-01-16T02:01:00;2.83;;;0.88;;
63511;SDS011;49666;52.030;8.884;2024-01-16T02:03:27;2.10;;;0.77;;
63511;SDS011;49666;52.030;8.884;2024-01-16T02:05:55;4.25;;;1.38;;
63511;SDS011;49666;52.030;8.884;2024-01-16T02:08:20;5.75;;;1.50;;
63511;SDS011;49666;52.030;8.884;2024-01-16T02:10:47;5.07;;;1.15;;
63511;SDS011;49666;52.030;8.884;2024-01-16T02:13:15;7.40;;;1.30;;
63511;SDS011;49666;52.030;8.884;2024-01-16T02:15:40;6.63;;;1.50;;
63511;SDS011;49666;52.030;8.884;2024-01-16T02:18:06;5.72;;;1.70;;
63511;SDS011;49666;52.030;8.884;2024-01-16T02:20:32;2.70;;;1.20;;
63511;SDS011;49666;52.030;8.884;2024-01-16T02:22:57;2.78;;;1.00;;
63511;SDS011;49666;52.030;8.884;2024-01-16T02:25:28;4.57;;;1.17;;
63511;SDS011;49666;52.030;8.884;2024-01-16T02:27:54;5.85;;;1.40;;
63511;SDS011;49666;52.030;8.884;2024-01-16T02:30:19;6.72;;;1.33;;
63511;SDS011;49666;52.030;8.884;2024-01-16T02:32:45;7.32;;;1.70;;
63511;SDS011;49666;52.030;8.884;2024-01-16T02:35:10;4.68;;;1.40;;
63511;SDS011;49666;52.030;8.884;2024-01-16T02:37:35;4.35;;;1.65;;
63511;SDS011;49666;52.030;8.884;2024-01-16T02:40:01;6.50;;;1.70;;
63511;SDS011;49666;52.030;8.884;2024-01-16T02:42:31;8.43;;;2.20;;
63511;SDS011;49666;52.030;8.884;2024-01-16T02:44:57;8.95;;;2.17;;
63511;SDS011;49666;52.030;8.884;2024-01-16T02:47:22;5.85;;;2.00;;
63511;SDS011;49666;52.030;8.884;2024-01-16T02:49:48;8.32;;;2.17;;
63511;SDS011;49666;52.030;8.884;2024-01-16T02:52:13;6.50;;;2.40;;
63511;SDS011;49666;52.030;8.884;2024-01-16T02:54:38;7.60;;;2.00;;
63511;SDS011;49666;52.030;8.884;2024-01-16T02:57:04;7.10;;;2.47;;
63511;SDS011;49666;52.030;8.884;2024-01-16T02:59:30;9.82;;;2.63;;
63511;SDS011;49666;52.030;8.884;2024-01-16T03:01:55;6.05;;;2.00;;
63511;SDS011;49666;52.030;8.884;2024-01-16T03:04:21;8.52;;;2.42;;
63511;SDS011;49666;52.030;8.884;2024-01-16T03:06:46;6.80;;;2.40;;
63511;SDS011;49666;52.030;8.884;2024-01-16T03:09:11;5.95;;;2.45;;
63511;SDS011;49666;52.030;8.884;2024-01-16T03:11:37;7.40;;;2.20;;
63511;SDS011;49666;52.030;8.884;2024-01-16T03:14:02;7.80;;;2.72;;
63511;SDS011;49666;52.030;8.884;2024-01-16T03:16:28;6.50;;;2.60;;
63511;SDS011;49666;52.030;8.884;2024-01-16T03:18:53;10.00;;;2.65;;
63511;SDS011;49666;52.030;8.884;2024-01-16T03:21:19;5.25;;;2.17;;
63511;SDS011;49666;52.030;8.884;2024-01-16T03:23:44;7.20;;;2.53;;
63511;SDS011;49666;52.030;8.884;2024-01-16T03:26:13;7.97;;;2.20;;
63511;SDS011;49666;52.030;8.884;2024-01-16T03:28:39;6.88;;;2.38;;
63511;SDS011;49666;52.030;8.884;2024-01-16T03:31:04;7.30;;;2.35;;
63511;SDS011;49666;52.030;8.884;2024-01-16T03:33:30;8.85;;;2.00;;
63511;SDS011;49666;52.030;8.884;2024-01-16T03:35:55;5.90;;;2.13;;
63511;SDS011;49666;52.030;8.884;2024-01-16T03:38:20;5.55;;;1.90;;
63511;SDS011;49666;52.030;8.884;2024-01-16T03:40:46;5.28;;;2.20;;
63511;SDS011;49666;52.030;8.884;2024-01-16T03:43:11;6.35;;;2.40;;
63511;SDS011;49666;52.030;8.884;2024-01-16T03:45:36;7.53;;;2.22;;
63511;SDS011;49666;52.030;8.884;2024-01-16T03:48:02;6.65;;;2.13;;
63511;SDS011;49666;52.030;8.884;2024-01-16T03:50:28;5.88;;;2.47;;
63511;SDS011;49666;52.030;8.884;2024-01-16T03:52:53;5.43;;;2.00;;
63511;SDS011;49666;52.030;8.884;2024-01-16T03:55:19;4.93;;;2.63;;
63511;SDS011;49666;52.030;8.884;2024-01-16T03:57:44;3.75;;;2.15;;
63511;SDS011;49666;52.030;8.884;2024-01-16T04:00:11;6.65;;;1.95;;
63511;SDS011;49666;52.030;8.884;2024-01-16T04:02:37;7.78;;;2.45;;
63511;SDS011;49666;52.030;8.884;2024-01-16T04:05:03;8.32;;;2.60;;
63511;SDS011;49666;52.030;8.884;2024-01-16T04:07:29;10.43;;;2.40;;
63511;SDS011;49666;52.030;8.884;2024-01-16T04:09:54;6.43;;;2.70;;
63511;SDS011;49666;52.030;8.884;2024-01-16T04:12:19;5.30;;;2.08;;
63511;SDS011;49666;52.030;8.884;2024-01-16T04:14:44;6.20;;;2.20;;
63511;SDS011;49666;52.030;8.884;2024-01-16T04:17:10;7.38;;;2.00;;
63511;SDS011;49666;52.030;8.884;2024-01-16T04:19:35;4.90;;;2.40;;
63511;SDS011;49666;52.030;8.884;2024-01-16T04:22:01;5.18;;;2.22;;
63511;SDS011;49666;52.030;8.884;2024-01-16T04:24:27;8.07;;;2.55;;
63511;SDS011;49666;52.030;8.884;2024-01-16T04:26:52;7.57;;;3.05;;
63511;SDS011;49666;52.030;8.884;2024-01-16T04:29:18;6.68;;;2.60;;
63511;SDS011;49666;52.030;8.884;2024-01-16T04:31:43;6.72;;;2.38;;
63511;SDS011;49666;52.030;8.884;2024-01-16T04:34:09;6.05;;;2.78;;
63511;SDS011;49666;52.030;8.884;2024-01-16T04:36:34;5.35;;;2.35;;
63511;SDS011;49666;52.030;8.884;2024-01-16T04:39:00;6.60;;;2.80;;
63511;SDS011;49666;52.030;8.884;2024-01-16T04:41:25;6.60;;;2.90;;
63511;SDS011;49666;52.030;8.884;2024-01-16T04:43:50;7.15;;;2.67;;
63511;SDS011;49666;52.030;8.884;2024-01-16T04:46:16;6.03;;;3.10;;
63511;SDS011;49666;52.030;8.884;2024-01-16T04:48:41;6.07;;;3.08;;
63511;SDS011;49666;52.030;8.884;2024-01-16T04:51:07;7.72;;;3.78;;
63511;SDS011;49666;52.030;8.884;2024-01-16T04:53:33;6.50;;;3.25;;
63511;SDS011;49666;52.030;8.884;2024-01-16T04:55:58;8.93;;;3.78;;
63511;SDS011;49666;52.030;8.884;2024-01-16T04:58:23;11.82;;;3.58;;
63511;SDS011;49666;52.030;8.884;2024-01-16T05:00:49;6.45;;;3.35;;
63511;SDS011;49666;52.030;8.884;2024-01-16T05:03:14;9.27;;;3.67;;
63511;SDS011;49666;52.030;8.884;2024-01-16T05:05:39;9.55;;;3.90;;
63511;SDS011;49666;52.030;8.884;2024-01-16T05:08:05;10.23;;;5.00;;
63511;SDS011;49666;52.030;8.884;2024-01-16T05:10:30;8.93;;;3.92;;
63511;SDS011;49666;52.030;8.884;2024-01-16T05:12:55;11.63;;;3.90;;
63511;SDS011;49666;52.030;8.884;2024-01-16T05:15:21;11.30;;;3.47;;
63511;SDS011;49666;52.030;8.884;2024-01-16T05:17:46;7.28;;;3.83;;
63511;SDS011;49666;52.030;8.884;2024-01-16T05:20:11;7.97;;;3.40;;
63511;SDS011;49666;52.030;8.884;2024-01-16T05:22:37;7.85;;;4.18;;
63511;SDS011;49666;52.030;8.884;2024-01-16T05:25:04;9.95;;;3.67;;
63511;SDS011;49666;52.030;8.884;2024-01-16T05:27:32;9.40;;;4.55;;
63511;SDS011;49666;52.030;8.884;2024-01-16T05:29:57;12.88;;;4.78;;
63511;SDS011;49666;52.030;8.884;2024-01-16T05:32:22;8.07;;;4.00;;
63511;SDS011;49666;52.030;8.884;2024-01-16T05:34:48;13.95;;;5.07;;
63511;SDS011;49666;52.030;8.884;2024-01-16T05:37:13;10.30;;;4.00;;
63511;SDS011;49666;52.030;8.884;2024-01-16T05:39:38;10.77;;;4.70;;
63511;SDS011;49666;52.030;8.884;2024-01-16T05:42:04;8.85;;;4.40;;
63511;SDS011;49666;52.030;8.884;2024-01-16T05:44:32;8.93;;;3.70;;
63511;SDS011;49666;52.030;8.884;2024-01-16T05:46:58;7.20;;;3.83;;
63511;SDS011;49666;52.030;8.884;2024-01-16T05:49:23;12.43;;;3.70;;
63511;SDS011;49666;52.030;8.884;2024-01-16T05:51:48;8.25;;;4.18;;
63511;SDS011;49666;52.030;8.884;2024-01-16T05:54:14;9.52;;;3.92;;
63511;SDS011;49666;52.030;8.884;2024-01-16T05:56:39;9.88;;;4.18;;
63511;SDS011;49666;52.030;8.884;2024-01-16T05:59:04;6.53;;;3.20;;
63511;SDS011;49666;52.030;8.884;2024-01-16T06:01:30;4.65;;;3.03;;
63511;SDS011;49666;52.030;8.884;2024-01-16T06:03:55;4.88;;;2.40;;
63511;SDS011;49666;52.030;8.884;2024-01-16T06:06:20;6.13;;;2.88;;
63511;SDS011;49666;52.030;8.884;2024-01-16T06:08:45;4.90;;;3.10;;
63511;SDS011;49666;52.030;8.884;2024-01-16T06:11:11;8.80;;;3.15;;
63511;SDS011;49666;52.030;8.884;2024-01-16T06:13:37;7.88;;;3.25;;
63511;SDS011;49666;52.030;8.884;2024-01-16T06:16:05;9.40;;;3.33;;
63511;SDS011;49666;52.030;8.884;2024-01-16T06:18:31;8.80;;;3.17;;
63511;SDS011;49666;52.030;8.884;2024-01-16T06:20:56;9.68;;;4.15;;
63511;SDS011;49666;52.030;8.884;2024-01-16T06:23:22;9.38;;;3.35;;
63511;SDS011;49666;52.030;8.884;2024-01-16T06:25:47;9.57;;;3.15;;
63511;SDS011;49666;52.030;8.884;2024-01-16T06:28:13;8.57;;;3.28;;
63511;SDS011;49666;52.030;8.884;2024-01-16T06:30:38;5.82;;;3.65;;
63511;SDS011;49666;52.030;8.884;2024-01-16T06:33:04;6.55;;;2.67;;
63511;SDS011;49666;52.030;8.884;2024-01-16T06:35:29;9.32;;;2.65;;
63511;SDS011;49666;52.030;8.884;2024-01-16T06:37:54;7.88;;;3.40;;
63511;SDS011;49666;52.030;8.884;2024-01-16T06:40:20;6.55;;;2.92;;
63511;SDS011;49666;52.030;8.884;2024-01-16T06:42:46;6.05;;;2.90;;
63511;SDS011;49666;52.030;8.884;2024-01-16T06:45:11;6.22;;;2.90;;
63511;SDS011;49666;52.030;8.884;2024-01-16T06:47:38;9.80;;;3.42;;
63511;SDS011;49666;52.030;8.884;2024-01-16T06:50:04;6.72;;;2.80;;
63511;SDS011;49666;52.030;8.884;2024-01-16T06:52:29;7.63;;;2.88;;
63511;SDS011;49666;52.030;8.884;2024-01-16T06:54:55;7.78;;;3.40;;
63511;SDS011;49666;52.030;8.884;2024-01-16T06:57:21;7.32;;;2.83;;
63511;SDS011;49666;52.030;8.884;2024-01-16T06:59:46;6.93;;;3.10;;
63511;SDS011;49666;52.030;8.884;2024-01-16T07:02:11;9.18;;;3.50;;
63511;SDS011;49666;52.030;8.884;2024-01-16T07:04:36;8.15;;;3.55;;
63511;SDS011;49666;52.030;8.884;2024-01-16T07:07:02;8.38;;;2.75;;
63511;SDS011;49666;52.030;8.884;2024-01-16T07:09:28;9.55;;;4.35;;
63511;SDS011;49666;52.030;8.884;2024-01-16T07:11:53;10.43;;;3.47;;
63511;SDS011;49666;52.030;8.884;2024-01-16T07:14:19;7.93;;;4.25;;
63511;SDS011;49666;52.030;8.884;2024-01-16T07:16:44;9.57;;;3.50;;
63511;SDS011;49666;52.030;8.884;2024-01-16T07:19:10;9.00;;;3.55;;
63511;SDS011;49666;52.030;8.884;2024-01-16T07:21:36;6.32;;;3.70;;
63511;SDS011;49666;52.030;8.884;2024-01-16T07:24:02;10.20;;;3.50;;
63511;SDS011;49666;52.030;8.884;2024-01-16T07:26:28;13.27;;;3.83;;
63511;SDS011;49666;52.030;8.884;2024-01-16T07:28:53;15.02;;;4.32;;
63511;SDS011;49666;52.030;8.884;2024-01-16T07:31:19;15.32;;;5.32;;
63511;SDS011;49666;52.030;8.884;2024-01-16T07:33:44;11.18;;;5.25;;
63511;SDS011;49666;52.030;8.884;2024-01-16T07:36:10;8.00;;;4.53;;
63511;SDS011;49666;52.030;8.884;2024-01-16T07:38:37;9.82;;;4.40;;
63511;SDS011;49666;52.030;8.884;2024-01-16T07:41:02;7.65;;;4.00;;
63511;SDS011;49666;52.030;8.884;2024-01-16T07:43:28;10.85;;;3.92;;
63511;SDS011;49666;52.030;8.884;2024-01-16T07:45:55;11.73;;;4.13;;
63511;SDS011;49666;52.030;8.884;2024-01-16T07:48:20;11.70;;;4.32;;
63511;SDS011;49666;52.030;8.884;2024-01-16T07:50:47;12.65;;;5.20;;
63511;SDS011;49666;52.030;8.884;2024-01-16T07:53:13;12.93;;;5.05;;
63511;SDS011;49666;52.030;8.884;2024-01-16T07:55:40;10.52;;;4.70;;
63511;SDS011;49666;52.030;8.884;2024-01-16T07:58:05;12.48;;;5.78;;
63511;SDS011;49666;52.030;8.884;2024-01-16T08:00:31;11.48;;;5.43;;
63511;SDS011;49666;52.030;8.884;2024-01-16T08:02:56;8.48;;;4.43;;
63511;SDS011;49666;52.030;8.884;2024-01-16T08:05:22;10.13;;;5.20;;
63511;SDS011;49666;52.030;8.884;2024-01-16T08:07:50;11.45;;;4.70;;
63511;SDS011;49666;52.030;8.884;2024-01-16T08:10:16;11.52;;;5.53;;
63511;SDS011;49666;52.030;8.884;2024-01-16T08:12:41;11.55;;;5.88;;
63511;SDS011;49666;52.030;8.884;2024-01-16T08:15:06;11.85;;;6.07;;
63511;SDS011;49666;52.030;8.884;2024-01-16T08:17:32;10.23;;;5.95;;
63511;SDS011;49666;52.030;8.884;2024-01-16T08:19:58;12.35;;;6.32;;
63511;SDS011;49666;52.030;8.884;2024-01-16T08:22:24;10.48;;;6.20;;
63511;SDS011;49666;52.030;8.884;2024-01-16T08:24:49;12.35;;;6.20;;
63511;SDS011;49666;52.030;8.884;2024-01-16T08:27:14;11.35;;;5.75;;
63511;SDS011;49666;52.030;8.884;2024-01-16T08:29:41;15.00;;;6.47;;
63511;SDS011;49666;52.030;8.884;2024-01-16T08:32:06;14.80;;;6.00;;
63511;SDS011;49666;52.030;8.884;2024-01-16T08:34:31;14.13;;;5.25;;
63511;SDS011;49666;52.030;8.884;2024-01-16T08:36:57;10.02;;;4.78;;
63511;SDS011;49666;52.030;8.884;2024-01-16T08:39:22;12.45;;;6.72;;
63511;SDS011;49666;52.030;8.884;2024-01-16T08:41:49;12.27;;;6.10;;
63511;SDS011;49666;52.030;8.884;2024-01-16T08:44:14;10.00;;;5.72;;
63511;SDS011;49666;52.030;8.884;2024-01-16T08:46:40;10.10;;;5.82;;
63511;SDS011;49666;52.030;8.884;2024-01-16T08:49:05;13.57;;;6.45;;
63511;SDS011;49666;52.030;8.884;2024-01-16T08:51:30;11.77;;;5.97;;
63511;SDS011;49666;52.030;8.884;2024-01-16T08:53:55;12.02;;;5.82;;
63511;SDS011;49666;52.030;8.884;2024-01-16T08:56:21;13.30;;;5.65;;
63511;SDS011;49666;52.030;8.884;2024-01-16T08:58:47;11.02;;;5.72;;
63511;SDS011;49666;52.030;8.884;2024-01-16T09:01:12;9.00;;;5.32;;
63511;SDS011;49666;52.030;8.884;2024-01-16T09:03:37;12.65;;;6.03;;
63511;SDS011;49666;52.030;8.884;2024-01-16T09:06:02;12.18;;;5.80;;
63511;SDS011;49666;52.030;8.884;2024-01-16T09:08:28;14.50;;;5.95;;
63511;SDS011;49666;52.030;8.884;2024-01-16T09:10:54;9.80;;;5.45;;
63511;SDS011;49666;52.030;8.884;2024-01-16T09:13:21;15.38;;;8.23;;
63511;SDS011;49666;52.030;8.884;2024-01-16T09:15:47;13.40;;;6.10;;
63511;SDS011;49666;52.030;8.884;2024-01-16T09:18:14;10.75;;;6.50;;
63511;SDS011;49666;52.030;8.884;2024-01-16T09:20:39;13.57;;;5.43;;
63511;SDS011;49666;52.030;8.884;2024-01-16T09:23:04;8.82;;;5.57;;
63511;SDS011;49666;52.030;8.884;2024-01-16T09:25:30;10.52;;;5.13;;
63511;SDS011;49666;52.030;8.884;2024-01-16T09:27:55;7.50;;;4.28;;
63511;SDS011;49666;52.030;8.884;2024-01-16T09:30:20;9.63;;;4.90;;
63511;SDS011;49666;52.030;8.884;2024-01-16T09:32:47;11.82;;;4.70;;
63511;SDS011;49666;52.030;8.884;2024-01-16T09:35:13;12.02;;;4.47;;
63511;SDS011;49666;52.030;8.884;2024-01-16T09:37:38;8.35;;;4.63;;
63511;SDS011;49666;52.030;8.884;2024-01-16T09:40:05;10.30;;;4.15;;
63511;SDS011;49666;52.030;8.884;2024-01-16T09:42:31;15.77;;;5.78;;
63511;SDS011;49666;52.030;8.884;2024-01-16T09:44:56;8.93;;;4.68;;
63511;SDS011;49666;52.030;8.884;2024-01-16T09:47:22;8.30;;;4.28;;
63511;SDS011;49666;52.030;8.884;2024-01-16T09:49:49;9.63;;;4.15;;
63511;SDS011;49666;52.030;8.884;2024-01-16T09:52:15;11.40;;;4.50;;
63511;SDS011;49666;52.030;8.884;2024-01-16T09:54:40;8.05;;;4.53;;
63511;SDS011;49666;52.030;8.884;2024-01-16T09:57:06;10.93;;;4.47;;
63511;SDS011;49666;52.030;8.884;2024-01-16T09:59:32;9.35;;;4.43;;
63511;SDS011;49666;52.030;8.884;2024-01-16T10:02:01;9.23;;;4.40;;
63511;SDS011;49666;52.030;8.884;2024-01-16T10:04:31;10.75;;;4.72;;
63511;SDS011;49666;52.030;8.884;2024-01-16T10:06:58;9.35;;;3.97;;
63511;SDS011;49666;52.030;8.884;2024-01-16T10:09:24;9.18;;;4.05;;
63511;SDS011;49666;52.030;8.884;2024-01-16T10:11:50;9.68;;;4.55;;
63511;SDS011;49666;52.030;8.884;2024-01-16T10:14:17;10.20;;;4.90;;
63511;SDS011;49666;52.030;8.884;2024-01-16T10:19:49;10.82;;;5.28;;
63511;SDS011;49666;52.030;8.884;2024-01-16T10:22:20;11.45;;;5.97;;
63511;SDS011;49666;52.030;8.884;2024-01-16T10:24:47;9.68;;;5.47;;
63511;SDS011;49666;52.030;8.884;2024-01-16T10:27:14;14.93;;;5.88;;
63511;SDS011;49666;52.030;8.884;2024-01-16T10:30:02;15.00;;;6.18;;
63511;SDS011;49666;52.030;8.884;2024-01-16T10:32:29;13.55;;;7.00;;
63511;SDS011;49666;52.030;8.884;2024-01-16T10:35:03;14.30;;;6.65;;
63511;SDS011;49666;52.030;8.884;2024-01-16T10:37:49;11.63;;;6.63;;
63511;SDS011;49666;52.030;8.884;2024-01-16T10:40:16;13.00;;;7.75;;
63511;SDS011;49666;52.030;8.884;2024-01-16T10:42:43;11.55;;;7.07;;
63511;SDS011;49666;52.030;8.884;2024-01-16T10:45:16;13.43;;;7.95;;
63511;SDS011;49666;52.030;8.884;2024-01-16T10:47:45;14.15;;;7.78;;
63511;SDS011;49666;52.030;8.884;2024-01-16T10:50:11;14.18;;;8.40;;
63511;SDS011;49666;52.030;8.884;2024-01-16T10:52:39;17.23;;;9.07;;
63511;SDS011;49666;52.030;8.884;2024-01-16T10:55:11;15.55;;;8.85;;
63511;SDS011;49666;52.030;8.884;2024-01-16T10:57:45;17.85;;;8.88;;
63511;SDS011;49666;52.030;8.884;2024-01-16T11:00:13;19.05;;;10.30;;
63511;SDS011;49666;52.030;8.884;2024-01-16T11:02:43;22.40;;;10.18;;
63511;SDS011;49666;52.030;8.884;2024-01-16T11:05:11;21.08;;;11.48;;
63511;SDS011;49666;52.030;8.884;2024-01-16T11:07:37;21.20;;;11.30;;
63511;SDS011;49666;52.030;8.884;2024-01-16T11:10:04;25.02;;;13.50;;
63511;SDS011;49666;52.030;8.884;2024-01-16T11:12:31;24.52;;;13.45;;
63511;SDS011;49666;52.030;8.884;2024-01-16T11:14:58;24.50;;;13.77;;
63511;SDS011;49666;52.030;8.884;2024-01-16T11:17:32;21.38;;;13.40;;
63511;SDS011;49666;52.030;8.884;2024-01-16T11:19:58;22.40;;;13.10;;
63511;SDS011;49666;52.030;8.884;2024-01-16T11:22:23;21.58;;;12.98;;
63511;SDS011;49666;52.030;8.884;2024-01-16T11:25:09;21.45;;;12.85;;
63511;SDS011;49666;52.030;8.884;2024-01-16T11:27:41;24.70;;;13.73;;
63511;SDS011;49666;52.030;8.884;2024-01-16T11:30:08;24.65;;;13.20;;
63511;SDS011;49666;52.030;8.884;2024-01-16T11:32:45;27.80;;;13.48;;
63511;SDS011;49666;52.030;8.884;2024-01-16T11:35:10;26.13;;;14.05;;
63511;SDS011;49666;52.030;8.884;2024-01-16T11:37:36;20.85;;;12.63;;
63511;SDS011;49666;52.030;8.884;2024-01-16T11:42:49;26.07;;;12.47;;
63511;SDS011;49666;52.030;8.884;2024-01-16T11:48:07;21.80;;;10.57;;
63511;SDS011;49666;52.030;8.884;2024-01-16T11:50:34;20.20;;;10.43;;
63511;SDS011;49666;52.030;8.884;2024-01-16T11:52:59;19.88;;;11.18;;
63511;SDS011;49666;52.030;8.884;2024-01-16T12:00:35;20.58;;;10.82;;
63511;SDS011;49666;52.030;8.884;2024-01-16T12:03:02;20.88;;;9.63;;
63511;SDS011;49666;52.030;8.884;2024-01-16T12:05:28;20.13;;;10.07;;
63511;SDS011;49666;52.030;8.884;2024-01-16T12:07:54;13.35;;;8.13;;
63511;SDS011;49666;52.030;8.884;2024-01-16T12:10:20;17.77;;;9.43;;
63511;SDS011;49666;52.030;8.884;2024-01-16T12:12:47;18.38;;;8.15;;
63511;SDS011;49666;52.030;8.884;2024-01-16T12:15:14;17.27;;;7.03;;
63511;SDS011;49666;52.030;8.884;2024-01-16T12:17:51;12.10;;;6.03;;
63511;SDS011;49666;52.030;8.884;2024-01-16T12:20:27;14.95;;;6.82;;
63511;SDS011;49666;52.030;8.884;2024-01-16T12:22:54;14.85;;;7.55;;
63511;SDS011;49666;52.030;8.884;2024-01-16T12:25:24;11.45;;;5.68;;
63511;SDS011;49666;52.030;8.884;2024-01-16T12:27:56;17.48;;;5.80;;
63511;SDS011;49666;52.030;8.884;2024-01-16T12:30:26;10.63;;;5.13;;
63511;SDS011;49666;52.030;8.884;2024-01-16T12:33:14;12.50;;;5.77;;
63511;SDS011;49666;52.030;8.884;2024-01-16T12:35:39;13.45;;;5.68;;
63511;SDS011;49666;52.030;8.884;2024-01-16T12:38:06;12.50;;;4.82;;
63511;SDS011;49666;52.030;8.884;2024-01-16T12:40:36;14.20;;;4.90;;
63511;SDS011;49666;52.030;8.884;2024-01-16T12:43:05;7.35;;;4.00;;
63511;SDS011;49666;52.030;8.884;2024-01-16T12:45:30;7.68;;;3.92;;
63511;SDS011;49666;52.030;8.884;2024-01-16T12:47:57;12.32;;;4.13;;
63511;SDS011;49666;52.030;8.884;2024-01-16T12:50:23;8.43;;;3.50;;
63511;SDS011;49666;52.030;8.884;2024-01-16T12:52:50;7.53;;;3.72;;
63511;SDS011;49666;52.030;8.884;2024-01-16T12:55:25;8.68;;;3.72;;
63511;SDS011;49666;52.030;8.884;2024-01-16T12:58:10;13.00;;;4.15;;
63511;SDS011;49666;52.030;8.884;2024-01-16T13:00:45;6.60;;;2.75;;
63511;SDS011;49666;52.030;8.884;2024-01-16T13:03:35;8.60;;;4.18;;
63511;SDS011;49666;52.030;8.884;2024-01-16T13:06:00;7.53;;;3.50;;
63511;SDS011;49666;52.030;8.884;2024-01-16T13:08:26;7.32;;;3.92;;
63511;SDS011;49666;52.030;8.884;2024-01-16T13:11:08;6.50;;;3.60;;
63511;SDS011;49666;52.030;8.884;2024-01-16T13:13:34;9.23;;;3.47;;
63511;SDS011;49666;52.030;8.884;2024-01-16T13:16:01;10.52;;;3.55;;
63511;SDS011;49666;52.030;8.884;2024-01-16T13:18:28;9.13;;;3.10;;
63511;SDS011;49666;52.030;8.884;2024-01-16T13:20:54;11.05;;;3.80;;
63511;SDS011;49666;52.030;8.884;2024-01-16T13:23:21;9.00;;;3.85;;
63511;SDS011;49666;52.030;8.884;2024-01-16T13:25:48;8.68;;;3.45;;
63511;SDS011;49666;52.030;8.884;2024-01-16T13:28:14;13.43;;;4.03;;
63511;SDS011;49666;52.030;8.884;2024-01-16T13:30:41;7.85;;;3.17;;
63511;SDS011;49666;52.030;8.884;2024-01-16T13:33:07;7.82;;;3.63;;
63511;SDS011;49666;52.030;8.884;2024-01-16T13:35:34;9.38;;;3.63;;
63511;SDS011;49666;52.030;8.884;2024-01-16T13:38:04;11.55;;;4.55;;
63511;SDS011;49666;52.030;8.884;2024-01-16T13:40:30;8.65;;;3.10;;
63511;SDS011;49666;52.030;8.884;2024-01-16T13:42:56;6.90;;;3.13;;
63511;SDS011;49666;52.030;8.884;2024-01-16T13:45:21;9.02;;;3.13;;
63511;SDS011;49666;52.030;8.884;2024-01-16T13:47:47;7.03;;;3.10;;
63511;SDS011;49666;52.030;8.884;2024-01-16T13:50:13;12.70;;;3.47;;
63511;SDS011;49666;52.030;8.884;2024-01-16T13:52:38;7.32;;;3.53;;
63511;SDS011;49666;52.030;8.884;2024-01-16T13:55:05;7.78;;;2.97;;
63511;SDS011;49666;52.030;8.884;2024-01-16T13:57:31;10.63;;;2.72;;
63511;SDS011;49666;52.030;8.884;2024-01-16T13:59:57;7.75;;;2.63;;
63511;SDS011;49666;52.030;8.884;2024-01-16T14:02:23;8.75;;;3.65;;
63511;SDS011;49666;52.030;8.884;2024-01-16T14:04:48;11.07;;;2.97;;
63511;SDS011;49666;52.030;8.884;2024-01-16T14:07:13;10.27;;;2.85;;
63511;SDS011;49666;52.030;8.884;2024-01-16T14:09:39;9.50;;;3.10;;
63511;SDS011;49666;52.030;8.884;2024-01-16T14:12:06;6.10;;;2.83;;
63511;SDS011;49666;52.030;8.884;2024-01-16T14:14:33;10.73;;;3.47;;
63511;SDS011;49666;52.030;8.884;2024-01-16T14:16:58;8.48;;;3.13;;
63511;SDS011;49666;52.030;8.884;2024-01-16T14:19:24;9.35;;;3.33;;
63511;SDS011;49666;52.030;8.884;2024-01-16T14:21:51;15.48;;;3.80;;
63511;SDS011;49666;52.030;8.884;2024-01-16T14:24:17;8.68;;;3.75;;
63511;SDS011;49666;52.030;8.884;2024-01-16T14:26:42;9.00;;;3.47;;
63511;SDS011;49666;52.030;8.884;2024-01-16T14:29:11;7.13;;;3.22;;
63511;SDS011;49666;52.030;8.884;2024-01-16T14:31:37;9.63;;;3.25;;
63511;SDS011;49666;52.030;8.884;2024-01-16T14:34:02;9.20;;;3.03;;
63511;SDS011;49666;52.030;8.884;2024-01-16T14:36:28;7.55;;;2.70;;
63511;SDS011;49666;52.030;8.884;2024-01-16T14:38:54;10.98;;;4.22;;
63511;SDS011;49666;52.030;8.884;2024-01-16T14:41:20;17.05;;;7.32;;
63511;SDS011;49666;52.030;8.884;2024-01-16T14:43:48;9.50;;;4.25;;
63511;SDS011;49666;52.030;8.884;2024-01-16T14:46:13;11.25;;;4.85;;
63511;SDS011;49666;52.030;8.884;2024-01-16T14:48:43;11.93;;;4.05;;
63511;SDS011;49666;52.030;8.884;2024-01-16T14:51:10;8.38;;;3.63;;
63511;SDS011;49666;52.030;8.884;2024-01-16T14:53:36;10.05;;;3.05;;
63511;SDS011;49666;52.030;8.884;2024-01-16T14:56:01;10.20;;;3.50;;